createdAt,value
2022-08-14T00:02:27.391Z,5.60
2022-08-14T00:04:56.443Z,3.72
2022-08-14T00:07:25.981Z,4.18
2022-08-14T00:10:02.023Z,8.70
2022-08-14T00:12:48.018Z,3.72
2022-08-14T00:15:24.727Z,4.93
2022-08-14T00:17:53.840Z,4.70
2022-08-14T00:20:30.522Z,4.20
2022-08-14T00:23:16.341Z,7.13
2022-08-14T00:25:53.675Z,10.93
2022-08-14T00:28:29.182Z,8.20
2022-08-14T00:31:01.945Z,6.13
2022-08-14T00:33:50.603Z,5.90
2022-08-14T00:36:37.003Z,10.35
2022-08-14T00:39:09.606Z,4.38
2022-08-14T00:41:38.914Z,6.35
2022-08-14T00:44:08.348Z,5.45
2022-08-14T00:46:38.510Z,4.80
2022-08-14T00:49:08.160Z,4.82
2022-08-14T00:51:41.148Z,5.47
2022-08-14T00:54:21.470Z,7.13
2022-08-14T00:56:55.138Z,5.68
2022-08-14T00:59:24.991Z,6.60
2022-08-14T01:01:55.181Z,7.40
2022-08-14T01:04:52.452Z,7.93
2022-08-14T01:07:21.480Z,6.00
2022-08-14T01:09:54.217Z,8.25
2022-08-14T01:12:27.406Z,9.13
2022-08-14T01:14:59.285Z,5.90
2022-08-14T01:17:50.740Z,6.93
2022-08-14T01:20:39.659Z,7.03
2022-08-14T01:23:16.311Z,7.63
2022-08-14T01:25:51.450Z,5.32
2022-08-14T01:28:46.229Z,6.47
2022-08-14T01:31:12.544Z,6.43
2022-08-14T01:33:59.742Z,6.30
2022-08-14T01:36:40.216Z,6.57
2022-08-14T01:39:14.271Z,6.93
2022-08-14T01:41:44.377Z,5.82
2022-08-14T01:44:32.854Z,5.03
2022-08-14T01:47:09.690Z,8.85
2022-08-14T01:49:45.887Z,5.00
2022-08-14T01:52:34.096Z,5.03
2022-08-14T01:55:06.782Z,8.35
2022-08-14T01:58:00.809Z,8.40
2022-08-14T02:00:27.561Z,4.63
2022-08-14T02:02:57.233Z,7.22
2022-08-14T02:05:29.429Z,5.68
2022-08-14T02:08:09.325Z,9.43
2022-08-14T02:10:46.299Z,10.85
2022-08-14T02:13:16.080Z,4.78
2022-08-14T02:15:45.695Z,8.20
2022-08-14T02:18:15.373Z,4.97
2022-08-14T02:20:45.195Z,6.28
2022-08-14T02:23:16.492Z,5.63
2022-08-14T02:25:57.354Z,4.60
2022-08-14T02:28:57.391Z,5.28
2022-08-14T02:31:16.927Z,7.22
2022-08-14T02:33:45.358Z,5.30
2022-08-14T02:37:04.137Z,10.00
2022-08-14T02:39:02.660Z,7.15
2022-08-14T02:41:36.760Z,5.70
2022-08-14T02:44:10.673Z,10.05
2022-08-14T02:46:41.244Z,6.43
2022-08-14T02:49:11.825Z,8.13
2022-08-14T02:51:41.735Z,7.75
2022-08-14T02:54:13.243Z,9.68
2022-08-14T02:57:16.052Z,10.05
2022-08-14T02:59:43.348Z,8.63
2022-08-14T03:02:33.588Z,8.30
2022-08-14T03:05:01.296Z,9.15
2022-08-14T03:07:29.574Z,6.85
2022-08-14T03:10:28.236Z,6.32
2022-08-14T03:12:47.701Z,6.63
2022-08-14T03:15:16.569Z,9.40
2022-08-14T03:17:57.910Z,6.82
2022-08-14T03:20:28.704Z,8.23
2022-08-14T03:23:00.317Z,6.47
2022-08-14T03:25:37.516Z,10.15
2022-08-14T03:28:14.936Z,7.13
2022-08-14T03:30:59.944Z,9.70
2022-08-14T03:33:38.377Z,7.15
2022-08-14T03:37:38.207Z,9.98
2022-08-14T03:39:14.853Z,9.25
2022-08-14T03:41:49.622Z,7.55
2022-08-14T03:45:27.854Z,7.90
2022-08-14T03:47:09.212Z,7.70
2022-08-14T03:49:43.164Z,9.43
2022-08-14T03:52:27.919Z,10.00
2022-08-14T03:55:03.662Z,8.88
2022-08-14T03:57:32.448Z,8.68
2022-08-14T04:00:04.912Z,8.63
2022-08-14T04:02:37.399Z,10.68
2022-08-14T04:05:16.611Z,8.23
2022-08-14T04:07:49.718Z,9.95
2022-08-14T04:10:36.514Z,11.18
2022-08-14T04:13:06.256Z,8.88
2022-08-14T04:15:55.760Z,12.27
2022-08-14T04:18:29.569Z,9.45
2022-08-14T04:20:58.662Z,11.45
2022-08-14T04:23:29.475Z,9.77
2022-08-14T04:26:02.665Z,9.10
2022-08-14T04:29:01.859Z,9.95
2022-08-14T04:33:01.416Z,13.60
2022-08-14T04:34:20.824Z,11.27
2022-08-14T04:37:10.650Z,14.00
2022-08-14T04:39:57.893Z,10.45
2022-08-14T04:42:47.373Z,11.57
2022-08-14T04:45:21.199Z,10.57
2022-08-14T04:48:10.061Z,11.30
2022-08-14T04:50:44.509Z,14.57
2022-08-14T04:53:15.742Z,12.73
2022-08-14T04:55:47.804Z,11.82
2022-08-14T04:58:33.085Z,11.80
2022-08-14T05:01:03.028Z,12.25
2022-08-14T05:03:35.823Z,11.55
2022-08-14T05:06:37.322Z,13.90
2022-08-14T05:09:00.025Z,12.27
2022-08-14T05:11:34.566Z,12.65
2022-08-14T05:14:33.896Z,15.63
2022-08-14T05:16:53.885Z,12.68
2022-08-14T05:19:29.240Z,13.25
2022-08-14T05:22:16.548Z,14.80
2022-08-14T05:24:50.343Z,13.15
2022-08-14T05:27:22.620Z,15.18
2022-08-14T05:29:53.253Z,15.27
2022-08-14T05:32:21.905Z,13.85
2022-08-14T05:34:53.042Z,13.45
2022-08-14T05:37:22.337Z,12.80
2022-08-14T05:39:51.072Z,13.48
2022-08-14T05:42:22.124Z,14.07
2022-08-14T05:45:11.293Z,11.93
2022-08-14T05:47:43.032Z,12.30
2022-08-14T05:50:18.459Z,12.82
2022-08-14T05:52:48.071Z,14.73
2022-08-14T05:55:21.780Z,13.73
2022-08-14T05:57:52.622Z,12.52
2022-08-14T06:00:24.984Z,16.20
2022-08-14T06:02:58.021Z,11.77
2022-08-14T06:05:30.315Z,12.40
2022-08-14T06:07:59.344Z,10.00
2022-08-14T06:10:28.744Z,11.52
2022-08-14T06:13:00.832Z,10.50
2022-08-14T06:15:30.640Z,11.32
2022-08-14T06:18:00.753Z,14.15
2022-08-14T06:20:34.132Z,13.30
2022-08-14T06:23:03.712Z,11.05
2022-08-14T06:25:32.652Z,12.35
2022-08-14T06:28:02.154Z,11.75
2022-08-14T06:30:46.383Z,11.85
2022-08-14T06:33:16.207Z,10.43
2022-08-14T06:35:48.625Z,10.77
2022-08-14T06:38:23.205Z,14.45
2022-08-14T06:40:53.303Z,11.32
2022-08-14T06:43:28.388Z,9.02
2022-08-14T06:45:57.178Z,13.65
2022-08-14T06:48:26.537Z,11.50
2022-08-14T06:50:57.957Z,8.27
2022-08-14T06:53:28.246Z,10.65
2022-08-14T06:56:02.142Z,8.88
2022-08-14T06:58:32.302Z,7.32
2022-08-14T07:01:24.950Z,12.85
2022-08-14T07:04:22.956Z,12.00
2022-08-14T07:06:55.755Z,16.50
2022-08-14T07:09:28.234Z,11.13
2022-08-14T07:12:09.542Z,12.88
2022-08-14T07:15:00.993Z,9.27
2022-08-14T07:17:31.951Z,17.08
2022-08-14T07:20:03.151Z,10.95
2022-08-14T07:22:33.114Z,12.10
2022-08-14T07:25:19.855Z,8.05
2022-08-14T07:27:48.454Z,13.40
2022-08-14T07:30:34.315Z,10.82
2022-08-14T07:33:04.201Z,8.30
2022-08-14T07:35:43.135Z,9.00
2022-08-14T07:38:24.423Z,9.52
2022-08-14T07:40:53.484Z,9.38
2022-08-14T07:43:23.073Z,7.72
2022-08-14T07:45:53.868Z,9.70
2022-08-14T07:48:25.192Z,9.27
2022-08-14T07:51:02.075Z,8.18
2022-08-14T07:53:36.486Z,8.75
2022-08-14T07:56:22.144Z,9.80
2022-08-14T07:58:58.546Z,9.25
2022-08-14T08:01:30.873Z,13.13
2022-08-14T08:04:01.153Z,9.65
2022-08-14T08:06:30.630Z,11.25
2022-08-14T08:09:03.498Z,14.32
2022-08-14T08:11:34.841Z,6.38
2022-08-14T08:14:16.337Z,6.50
2022-08-14T08:16:51.034Z,8.95
2022-08-14T08:19:19.753Z,8.63
2022-08-14T08:21:48.262Z,8.63
2022-08-14T08:24:19.698Z,8.95
2022-08-14T08:26:50.242Z,11.60
2022-08-14T08:29:24.946Z,9.82
2022-08-14T08:32:01.771Z,8.98
2022-08-14T08:34:45.940Z,9.95
2022-08-14T08:37:14.882Z,9.18
2022-08-14T08:40:01.636Z,6.18
2022-08-14T08:42:38.702Z,6.47
2022-08-14T08:45:12.258Z,6.10
2022-08-14T08:47:41.556Z,7.85
2022-08-14T08:50:23.045Z,11.30
2022-08-14T08:52:53.811Z,5.72
2022-08-14T08:55:35.248Z,23.25
2022-08-14T08:58:12.444Z,10.90
2022-08-14T09:00:48.816Z,5.43
2022-08-14T09:03:20.749Z,5.53
2022-08-14T09:05:54.372Z,7.20
2022-08-14T09:08:31.706Z,4.57
2022-08-14T09:11:19.000Z,7.63
2022-08-14T09:13:50.238Z,6.65
2022-08-14T09:16:22.019Z,9.57
2022-08-14T09:18:53.538Z,9.68
2022-08-14T09:21:24.426Z,6.80
2022-08-14T09:24:28.020Z,7.00
2022-08-14T09:26:48.861Z,4.85
2022-08-14T09:29:17.883Z,4.18
2022-08-14T09:31:53.337Z,6.43
2022-08-14T09:34:31.498Z,3.65
2022-08-14T09:37:24.634Z,7.90
2022-08-14T09:40:00.825Z,3.78
2022-08-14T09:42:50.980Z,7.32
2022-08-14T09:45:23.915Z,4.03
2022-08-14T09:47:54.511Z,4.53
2022-08-14T09:50:28.345Z,4.75
2022-08-14T09:53:00.060Z,5.80
2022-08-14T09:55:41.513Z,4.45
2022-08-14T09:58:19.258Z,5.20
2022-08-14T10:00:54.012Z,4.10
2022-08-14T10:03:33.393Z,3.70
2022-08-14T10:06:09.939Z,4.15
2022-08-14T10:09:00.649Z,3.15
2022-08-14T10:11:36.486Z,5.07
2022-08-14T10:14:29.042Z,8.23
2022-08-14T10:17:05.235Z,4.93
2022-08-14T10:19:35.731Z,4.88
2022-08-14T10:23:15.472Z,5.35
2022-08-14T10:24:57.398Z,4.22
2022-08-14T10:27:28.915Z,4.30
2022-08-14T10:30:01.160Z,6.40
2022-08-14T10:32:36.595Z,4.40
2022-08-14T10:35:14.226Z,3.03
2022-08-14T10:37:46.641Z,11.50
2022-08-14T10:40:37.385Z,5.10
2022-08-14T10:43:06.161Z,5.03
2022-08-14T10:45:42.099Z,2.38
2022-08-14T10:48:24.364Z,3.33
2022-08-14T10:51:05.380Z,4.75
2022-08-14T10:53:40.083Z,4.60
2022-08-14T10:56:22.058Z,2.72
2022-08-14T10:59:02.715Z,2.80
2022-08-14T11:01:40.853Z,2.90
2022-08-14T11:04:26.004Z,3.05
2022-08-14T11:06:57.017Z,3.88
2022-08-14T11:09:26.025Z,5.70
2022-08-14T11:12:35.050Z,5.78
2022-08-14T11:14:59.462Z,4.47
2022-08-14T11:17:32.852Z,3.10
2022-08-14T11:20:02.942Z,3.75
2022-08-14T11:22:56.860Z,5.00
2022-08-14T11:25:23.812Z,4.20
2022-08-14T11:27:53.885Z,2.60
2022-08-14T11:30:50.887Z,3.92
2022-08-14T11:33:16.289Z,3.97
2022-08-14T11:35:49.792Z,4.82
2022-08-14T11:38:21.493Z,2.67
2022-08-14T11:40:50.034Z,2.38
2022-08-14T11:43:22.812Z,3.17
2022-08-14T11:45:58.268Z,2.35
2022-08-14T11:49:02.470Z,2.63
2022-08-14T11:51:26.176Z,3.45
2022-08-14T11:54:03.944Z,2.20
2022-08-14T11:56:36.960Z,7.15
2022-08-14T11:59:10.053Z,2.65
2022-08-14T12:01:41.059Z,2.20
2022-08-14T12:04:32.757Z,3.80
2022-08-14T12:07:01.600Z,3.25
2022-08-14T12:09:31.345Z,5.55
2022-08-14T12:11:59.946Z,2.05
2022-08-14T12:14:35.194Z,2.20
2022-08-14T12:17:11.733Z,2.33
2022-08-14T12:19:53.807Z,4.00
2022-08-14T12:22:34.715Z,3.08
2022-08-14T12:25:10.080Z,3.15
2022-08-14T12:27:52.719Z,3.38
2022-08-14T12:30:34.446Z,3.38
2022-08-14T12:33:08.833Z,3.25
2022-08-14T12:35:44.084Z,3.42
2022-08-14T12:38:19.583Z,1.90
2022-08-14T12:40:51.036Z,3.08
2022-08-14T12:43:21.608Z,5.35
2022-08-14T12:45:51.442Z,2.72
2022-08-14T12:48:31.652Z,3.85
2022-08-14T12:51:02.140Z,3.88
2022-08-14T12:53:38.963Z,4.35
2022-08-14T12:56:22.060Z,4.60
2022-08-14T12:58:58.019Z,3.38
2022-08-14T13:01:28.958Z,4.50
2022-08-14T13:04:07.233Z,4.10
2022-08-14T13:06:38.040Z,3.55
2022-08-14T13:09:11.117Z,2.65
2022-08-14T13:11:44.845Z,3.80
2022-08-14T13:14:17.826Z,2.47
2022-08-14T13:16:50.178Z,2.25
2022-08-14T13:19:19.889Z,2.70
2022-08-14T13:22:04.908Z,2.10
2022-08-14T13:24:40.623Z,3.67
2022-08-14T13:27:11.136Z,2.53
2022-08-14T13:29:44.681Z,2.25
2022-08-14T13:32:16.442Z,2.70
2022-08-14T13:34:48.699Z,3.17
2022-08-14T13:37:19.649Z,5.97
2022-08-14T13:39:57.090Z,6.20
2022-08-14T13:42:30.831Z,4.95
2022-08-14T13:45:02.363Z,4.07
2022-08-14T13:47:33.130Z,3.17
2022-08-14T13:50:06.657Z,4.15
2022-08-14T13:52:52.026Z,9.65
2022-08-14T13:55:23.997Z,6.55
2022-08-14T13:58:04.438Z,5.05
2022-08-14T14:00:36.002Z,4.25
2022-08-14T14:03:23.732Z,6.03
2022-08-14T14:05:54.887Z,4.97
2022-08-14T14:08:47.025Z,3.95
2022-08-14T14:11:15.914Z,3.67
2022-08-14T14:13:46.510Z,5.00
2022-08-14T14:16:22.088Z,5.85
2022-08-14T14:19:06.705Z,4.22
2022-08-14T14:21:40.367Z,6.13
2022-08-14T14:24:15.104Z,4.75
2022-08-14T14:26:47.263Z,5.95
2022-08-14T14:29:16.778Z,5.70
2022-08-14T14:31:49.078Z,8.93
2022-08-14T14:34:29.822Z,7.20
2022-08-14T14:37:03.023Z,5.20
2022-08-14T14:39:37.775Z,5.03
2022-08-14T14:42:13.565Z,4.72
2022-08-14T14:44:53.256Z,4.53
2022-08-14T14:47:26.482Z,6.07
2022-08-14T14:49:56.808Z,5.53
2022-08-14T14:52:27.778Z,6.40
2022-08-14T14:54:59.287Z,4.18
2022-08-14T14:57:35.540Z,4.93
2022-08-14T15:00:08.858Z,6.57
2022-08-14T15:02:43.740Z,4.00
2022-08-14T15:05:14.259Z,4.50
2022-08-14T15:07:43.260Z,3.83
2022-08-14T15:10:26.804Z,7.53
2022-08-14T15:13:00.520Z,7.75
2022-08-14T15:15:33.051Z,4.63
2022-08-14T15:18:01.721Z,5.88
2022-08-14T15:20:31.392Z,5.15
2022-08-14T15:23:12.011Z,8.57
2022-08-14T15:25:43.743Z,6.60
2022-08-14T15:28:21.766Z,3.95
2022-08-14T15:30:58.809Z,4.47
2022-08-14T15:34:00.912Z,6.00
2022-08-14T15:36:35.243Z,6.40
2022-08-14T15:39:04.233Z,4.05
2022-08-14T15:41:41.437Z,5.90
2022-08-14T15:44:25.293Z,5.97
2022-08-14T15:46:56.005Z,5.28
2022-08-14T15:49:33.216Z,7.00
2022-08-14T15:52:04.628Z,5.22
2022-08-14T15:54:33.922Z,7.75
2022-08-14T15:57:08.341Z,11.20
2022-08-14T15:59:51.408Z,9.55
2022-08-14T16:02:24.586Z,7.57
2022-08-14T16:04:56.521Z,10.07
2022-08-14T16:07:27.248Z,7.47
2022-08-14T16:10:27.576Z,6.47
2022-08-14T16:12:47.825Z,5.07
2022-08-14T16:15:16.904Z,5.07
2022-08-14T16:17:46.674Z,5.13
2022-08-14T16:20:41.863Z,8.70
2022-08-14T16:23:07.630Z,5.97
2022-08-14T16:25:40.366Z,7.18
2022-08-14T16:28:09.999Z,10.05
2022-08-14T16:30:55.454Z,8.45
2022-08-14T16:33:27.847Z,8.35
2022-08-14T16:36:30.195Z,8.68
2022-08-14T16:39:00.424Z,8.18
2022-08-14T16:41:29.789Z,9.07
2022-08-14T16:44:04.615Z,8.50
2022-08-14T16:46:34.890Z,6.70
2022-08-14T16:49:05.335Z,4.60
2022-08-14T16:51:38.339Z,10.63
2022-08-14T16:54:20.982Z,7.32
2022-08-14T16:57:13.610Z,6.38
2022-08-14T16:59:52.204Z,8.55
2022-08-14T17:02:35.292Z,6.18
2022-08-14T17:05:21.592Z,5.82
2022-08-14T17:08:32.828Z,8.07
2022-08-14T17:11:09.776Z,5.45
2022-08-14T17:13:59.384Z,7.70
2022-08-14T17:16:33.172Z,6.40
2022-08-14T17:19:05.903Z,6.07
2022-08-14T17:21:42.499Z,9.70
2022-08-14T17:24:51.508Z,6.15
2022-08-14T17:27:07.377Z,6.45
2022-08-14T17:29:54.578Z,7.00
2022-08-14T17:32:55.574Z,6.68
2022-08-14T17:35:57.324Z,6.70
2022-08-14T17:38:38.266Z,8.15
2022-08-14T17:41:22.966Z,7.38
2022-08-14T17:43:55.222Z,8.10
2022-08-14T17:46:36.732Z,7.93
2022-08-14T17:49:16.014Z,8.85
2022-08-14T17:52:01.507Z,9.32
2022-08-14T17:54:34.927Z,10.65
2022-08-14T17:57:10.608Z,6.28
2022-08-14T17:59:43.250Z,8.27
2022-08-14T18:02:16.401Z,6.57
2022-08-14T18:04:48.297Z,8.40
2022-08-14T18:07:59.780Z,10.48
2022-08-14T18:10:53.050Z,9.30
2022-08-14T18:13:02.627Z,7.38
2022-08-14T18:15:35.497Z,8.20
2022-08-14T18:18:08.803Z,7.78
2022-08-14T18:21:42.569Z,9.30
2022-08-14T18:23:29.371Z,11.13
2022-08-14T18:26:00.778Z,8.43
2022-08-14T18:28:48.578Z,10.52
2022-08-14T18:31:43.673Z,7.13
2022-08-14T18:34:31.792Z,9.10
2022-08-14T18:37:17.377Z,9.05
2022-08-14T18:40:03.541Z,11.85
2022-08-14T18:42:45.325Z,10.40
2022-08-14T18:45:19.056Z,9.52
2022-08-14T18:48:28.463Z,12.90
2022-08-14T18:51:03.367Z,9.85
2022-08-14T18:53:53.335Z,7.35
2022-08-14T18:56:58.583Z,7.07
2022-08-14T18:59:35.618Z,6.93
2022-08-14T19:02:43.048Z,7.90
2022-08-14T19:05:12.483Z,11.88
2022-08-14T19:07:41.006Z,8.27
2022-08-14T19:10:16.573Z,9.68
2022-08-14T19:13:04.852Z,8.30
2022-08-14T19:15:36.596Z,8.48
2022-08-14T19:18:27.801Z,7.65
2022-08-14T19:20:58.551Z,5.90
2022-08-14T19:23:42.824Z,8.23
2022-08-14T19:26:36.632Z,5.70
2022-08-14T19:29:39.712Z,6.45
2022-08-14T19:32:39.753Z,5.50
2022-08-14T19:35:55.735Z,12.68
2022-08-14T19:38:47.857Z,6.88
2022-08-14T19:41:17.753Z,6.72
2022-08-14T19:43:55.624Z,9.85
2022-08-14T19:46:39.215Z,5.20
2022-08-14T19:49:22.982Z,7.22
2022-08-14T19:52:20.520Z,8.85
2022-08-14T19:54:51.172Z,3.85
2022-08-14T19:57:21.479Z,6.32
2022-08-14T20:00:04.743Z,6.57
2022-08-14T20:02:37.595Z,4.68
2022-08-14T20:05:07.955Z,3.28
2022-08-14T20:07:59.981Z,6.65
2022-08-14T20:11:11.549Z,4.93
2022-08-14T20:13:32.617Z,4.13
2022-08-14T20:16:12.156Z,4.68
2022-08-14T20:18:51.980Z,3.28
2022-08-14T20:21:21.539Z,2.75
2022-08-14T20:23:50.443Z,3.85
2022-08-14T20:26:31.581Z,6.40
2022-08-14T20:29:07.184Z,3.72
2022-08-14T20:31:38.347Z,4.85
2022-08-14T20:34:18.904Z,7.30
2022-08-14T20:37:02.902Z,4.07
2022-08-14T20:39:34.584Z,4.82
2022-08-14T20:42:31.861Z,4.15
2022-08-14T20:45:24.872Z,3.15
2022-08-14T20:48:01.280Z,3.90
2022-08-14T20:50:31.531Z,4.57
2022-08-14T20:53:06.063Z,7.20
2022-08-14T20:55:41.650Z,5.30
2022-08-14T20:58:42.217Z,4.95
2022-08-14T21:01:33.664Z,5.72
2022-08-14T21:04:16.977Z,11.27
2022-08-14T21:07:23.209Z,5.70
2022-08-14T21:10:06.174Z,4.13
2022-08-14T21:12:34.602Z,6.47
2022-08-14T21:15:10.249Z,5.03
2022-08-14T21:17:43.364Z,5.05
2022-08-14T21:20:26.547Z,6.70
2022-08-14T21:23:00.365Z,7.38
2022-08-14T21:25:31.852Z,3.40
2022-08-14T21:28:04.889Z,9.90
2022-08-14T21:30:51.093Z,7.65
2022-08-14T21:33:22.930Z,6.30
2022-08-14T21:35:54.771Z,5.68
2022-08-14T21:38:33.871Z,9.23
2022-08-14T21:41:42.677Z,4.18
2022-08-14T21:44:04.311Z,6.15
2022-08-14T21:46:36.424Z,5.18
2022-08-14T21:49:13.860Z,4.13
2022-08-14T21:51:54.006Z,3.58
2022-08-14T21:54:32.299Z,6.78
2022-08-14T21:57:17.354Z,7.28
2022-08-14T21:59:45.754Z,5.10
2022-08-14T22:02:32.876Z,5.00
2022-08-14T22:05:03.670Z,6.43
2022-08-14T22:07:34.211Z,5.97
2022-08-14T22:10:02.679Z,8.45
2022-08-14T22:12:57.944Z,5.97
2022-08-14T22:15:24.920Z,4.80
2022-08-14T22:17:54.753Z,7.90
2022-08-14T22:20:28.268Z,3.15
2022-08-14T22:22:57.686Z,8.82
2022-08-14T22:25:34.057Z,6.75
2022-08-14T22:28:04.293Z,5.93
2022-08-14T22:30:32.707Z,4.22
2022-08-14T22:33:01.022Z,4.60
2022-08-14T22:35:30.825Z,4.93
2022-08-14T22:38:32.601Z,6.25
2022-08-14T22:41:20.411Z,5.32
2022-08-14T22:43:38.840Z,7.30
2022-08-14T22:46:14.886Z,4.32
2022-08-14T22:48:45.382Z,6.28
2022-08-14T22:51:16.009Z,6.25
2022-08-14T22:53:48.672Z,7.03
2022-08-14T22:56:22.075Z,5.93
2022-08-14T22:58:54.181Z,6.57
2022-08-14T23:01:56.847Z,11.65
2022-08-14T23:04:35.081Z,5.32
2022-08-14T23:07:22.085Z,4.57
2022-08-14T23:09:56.521Z,9.40
2022-08-14T23:12:29.538Z,5.82
2022-08-14T23:15:00.003Z,6.53
2022-08-14T23:17:39.430Z,6.65
2022-08-14T23:20:18.573Z,4.78
2022-08-14T23:22:52.630Z,8.00
2022-08-14T23:25:57.123Z,8.98
2022-08-14T23:28:34.445Z,5.45
2022-08-14T23:31:06.135Z,6.03
2022-08-14T23:33:46.108Z,8.15
2022-08-14T23:36:32.044Z,8.80
2022-08-14T23:39:10.437Z,6.45
2022-08-14T23:41:52.646Z,5.35
2022-08-14T23:44:23.521Z,6.63
2022-08-14T23:46:56.918Z,6.35
2022-08-14T23:49:55.473Z,6.57
2022-08-14T23:52:51.638Z,6.68
2022-08-14T23:55:11.228Z,5.53
2022-08-14T23:57:44.100Z,7.80
